createdAt,value
2018-06-13T00:01:26.518Z,97295.56
2018-06-13T00:03:54.209Z,97295.25
2018-06-13T00:06:21.774Z,97294.38
2018-06-13T00:08:49.290Z,97293.96
2018-06-13T00:11:16.810Z,97288.47
2018-06-13T00:13:44.377Z,97289.87
2018-06-13T00:16:11.889Z,97290.17
2018-06-13T00:18:39.443Z,97287.17
2018-06-13T00:21:06.963Z,97288.01
2018-06-13T00:23:34.477Z,97291.90
2018-06-13T00:26:02.079Z,97293.08
2018-06-13T00:28:29.588Z,97286.30
2018-06-13T00:30:57.153Z,97284.14
2018-06-13T00:33:24.666Z,97283.06
2018-06-13T00:35:52.198Z,97284.45
2018-06-13T00:38:19.762Z,97280.02
2018-06-13T00:40:47.279Z,97275.27
2018-06-13T00:43:14.836Z,97275.36
2018-06-13T00:45:42.351Z,97277.23
2018-06-13T00:48:09.870Z,97282.73
2018-06-13T00:50:37.409Z,97279.81
2018-06-13T00:53:05.102Z,97280.50
2018-06-13T00:55:32.734Z,97274.90
2018-06-13T00:58:00.283Z,97276.28
2018-06-13T01:00:27.806Z,97274.00
2018-06-13T01:02:55.351Z,97272.60
2018-06-13T01:05:22.866Z,97271.73
2018-06-13T01:07:50.425Z,97278.73
2018-06-13T01:10:17.942Z,97275.17
2018-06-13T01:12:45.461Z,97271.20
2018-06-13T01:15:13.022Z,97273.77
2018-06-13T01:17:40.545Z,97267.21
2018-06-13T01:20:08.253Z,97270.66
2018-06-13T01:22:35.770Z,97262.36
2018-06-13T01:25:03.371Z,97265.17
2018-06-13T01:27:30.910Z,97260.61
2018-06-13T01:29:58.430Z,97263.42
2018-06-13T01:32:25.982Z,97263.74
2018-06-13T01:34:53.521Z,97255.52
2018-06-13T01:37:21.030Z,97247.98
2018-06-13T01:39:48.569Z,97251.55
2018-06-13T01:42:16.090Z,97247.58
2018-06-13T01:44:43.650Z,97247.47
2018-06-13T01:47:11.170Z,97250.81
2018-06-13T01:49:38.733Z,97250.70
2018-06-13T01:52:06.843Z,97251.98
2018-06-13T01:54:34.853Z,97250.37
2018-06-13T01:57:02.420Z,97251.66
2018-06-13T01:59:29.937Z,97252.84
2018-06-13T02:01:57.510Z,97255.31
2018-06-13T02:04:25.057Z,97252.92
2018-06-13T02:06:52.593Z,97247.64
2018-06-13T02:09:20.139Z,97254.53
2018-06-13T02:11:47.656Z,97254.41
2018-06-13T02:14:15.174Z,97250.86
2018-06-13T02:16:42.698Z,97253.98
2018-06-13T02:19:10.210Z,97257.42
2018-06-13T02:21:37.788Z,97259.78
2018-06-13T02:24:05.395Z,97259.98
2018-06-13T02:26:32.919Z,97266.05
2018-06-13T02:29:00.475Z,97263.78
2018-06-13T02:31:27.986Z,97266.34
2018-06-13T02:33:55.546Z,97269.67
2018-06-13T02:36:23.068Z,97260.19
2018-06-13T02:38:50.606Z,97262.55
2018-06-13T02:41:18.254Z,97259.75
2018-06-13T02:43:45.765Z,97258.76
2018-06-13T02:46:13.298Z,97263.08
2018-06-13T02:48:40.826Z,97260.92
2018-06-13T02:51:08.377Z,97257.70
2018-06-13T02:53:36.125Z,97262.55
2018-06-13T02:56:03.662Z,97261.03
2018-06-13T02:58:31.214Z,97262.72
2018-06-13T03:00:58.755Z,97262.52
2018-06-13T03:03:26.294Z,97274.36
2018-06-13T03:05:53.845Z,97273.48
2018-06-13T03:08:21.374Z,97271.12
2018-06-13T03:10:48.929Z,97274.44
2018-06-13T03:13:16.495Z,97279.05
2018-06-13T03:15:44.015Z,97271.60
2018-06-13T03:18:11.618Z,97274.72
2018-06-13T03:20:39.189Z,97272.88
2018-06-13T03:23:06.749Z,97279.44
2018-06-13T03:25:34.253Z,97272.65
2018-06-13T03:28:01.791Z,97283.00
2018-06-13T03:30:29.335Z,97280.48
2018-06-13T03:32:56.862Z,97282.43
2018-06-13T03:35:24.410Z,97281.55
2018-06-13T03:37:52.002Z,97286.72
2018-06-13T03:40:19.535Z,97293.72
2018-06-13T03:42:47.069Z,97296.27
2018-06-13T03:45:14.634Z,97298.18
2018-06-13T03:47:42.196Z,97300.86
2018-06-13T03:50:09.722Z,97301.57
2018-06-13T03:52:37.247Z,97308.36
2018-06-13T03:55:04.870Z,97307.81
2018-06-13T03:57:32.433Z,97310.52
2018-06-13T03:59:59.959Z,97312.28
2018-06-13T04:02:27.511Z,97317.72
2018-06-13T04:04:55.031Z,97313.69
2018-06-13T04:07:22.555Z,97313.45
2018-06-13T04:09:50.098Z,97317.02
2018-06-13T04:12:17.622Z,97325.35
2018-06-13T04:14:45.230Z,97323.23
2018-06-13T04:17:12.742Z,97327.88
2018-06-13T04:19:40.261Z,97340.70
2018-06-13T04:22:07.902Z,97348.84
2018-06-13T04:24:35.422Z,97345.75
2018-06-13T04:27:02.982Z,97344.41
2018-06-13T04:29:30.531Z,97351.58
2018-06-13T04:31:58.075Z,97345.11
2018-06-13T04:34:25.638Z,97344.08
2018-06-13T04:36:53.178Z,97345.11
2018-06-13T04:39:20.730Z,97358.97
2018-06-13T04:41:48.262Z,97355.91
2018-06-13T04:44:15.794Z,97355.02
2018-06-13T04:46:43.351Z,97353.50
2018-06-13T04:49:10.859Z,97354.69
2018-06-13T04:51:38.412Z,97355.53
2018-06-13T04:54:05.970Z,97356.30
2018-06-13T04:56:33.503Z,97356.17
2018-06-13T04:59:01.050Z,97347.69
2018-06-13T05:01:28.557Z,97348.66
2018-06-13T05:03:56.134Z,97345.23
2018-06-13T05:06:23.675Z,97349.42
2018-06-13T05:08:51.175Z,97352.22
2018-06-13T05:11:18.703Z,97353.86
2018-06-13T05:13:46.226Z,97347.39
2018-06-13T05:16:13.784Z,97358.18
2018-06-13T05:18:41.317Z,97352.28
2018-06-13T05:21:08.854Z,97346.63
2018-06-13T05:23:36.417Z,97343.19
2018-06-13T05:26:03.990Z,97338.72
2018-06-13T05:28:31.551Z,97343.01
2018-06-13T05:30:59.071Z,97340.45
2018-06-13T05:33:26.606Z,97340.45
2018-06-13T05:35:54.156Z,97346.17
2018-06-13T05:38:21.673Z,97343.59
2018-06-13T05:40:49.282Z,97344.29
2018-06-13T05:43:16.815Z,97344.53
2018-06-13T05:45:44.358Z,97348.33
2018-06-13T05:48:11.910Z,97349.30
2018-06-13T05:50:39.446Z,97352.80
2018-06-13T05:53:07.003Z,97350.42
2018-06-13T05:55:34.514Z,97350.81
2018-06-13T05:58:02.054Z,97346.88
2018-06-13T06:00:29.602Z,97347.21
2018-06-13T06:02:57.112Z,97347.58
2018-06-13T06:05:24.706Z,97356.73
2018-06-13T06:07:52.237Z,97352.17
2018-06-13T06:10:19.789Z,97352.38
2018-06-13T06:12:47.299Z,97355.54
2018-06-13T06:15:14.818Z,97360.30
2018-06-13T06:17:42.383Z,97359.22
2018-06-13T06:20:09.974Z,97355.78
2018-06-13T06:22:37.498Z,97357.31
2018-06-13T06:25:05.080Z,97356.70
2018-06-13T06:27:32.614Z,97364.91
2018-06-13T06:30:00.167Z,97363.83
2018-06-13T06:32:27.678Z,97367.50
2018-06-13T06:34:55.189Z,97368.91
2018-06-13T06:37:23.004Z,97372.46
2018-06-13T06:39:50.572Z,97374.03
2018-06-13T06:42:18.131Z,97371.35
2018-06-13T06:44:45.702Z,97370.30
2018-06-13T06:47:13.234Z,97371.16
2018-06-13T06:49:40.821Z,97369.50
2018-06-13T06:52:08.330Z,97377.42
2018-06-13T06:54:35.876Z,97376.88
2018-06-13T06:57:03.389Z,97378.98
2018-06-13T06:59:30.897Z,97376.20
2018-06-13T07:01:58.434Z,97381.32
2018-06-13T07:04:25.944Z,97368.52
2018-06-13T07:06:53.505Z,97373.39
2018-06-13T07:09:21.019Z,97371.47
2018-06-13T07:11:48.541Z,97372.00
2018-06-13T07:14:16.087Z,97372.66
2018-06-13T07:16:43.593Z,97377.41
2018-06-13T07:19:11.134Z,97377.33
2018-06-13T07:21:38.663Z,97369.98
2018-06-13T07:24:06.227Z,97373.98
2018-06-13T07:26:33.774Z,97377.86
2018-06-13T07:29:01.306Z,97374.30
2018-06-13T07:31:28.846Z,97377.77
2018-06-13T07:33:56.370Z,97379.34
2018-06-13T07:36:23.891Z,97379.96
2018-06-13T07:38:51.437Z,97377.05
2018-06-13T07:41:18.934Z,97376.02
2018-06-13T07:43:46.538Z,97378.74
2018-06-13T07:46:14.065Z,97377.45
2018-06-13T07:48:41.598Z,97382.42
2018-06-13T07:51:09.163Z,97386.38
2018-06-13T07:53:36.686Z,97385.77
2018-06-13T07:56:04.279Z,97379.45
2018-06-13T07:58:31.846Z,97379.59
2018-06-13T08:00:59.376Z,97379.96
2018-06-13T08:03:26.933Z,97390.69
2018-06-13T08:05:54.449Z,97386.83
2018-06-13T08:08:21.991Z,97396.84
2018-06-13T08:10:49.528Z,97400.30
2018-06-13T08:13:17.038Z,97397.30
2018-06-13T08:15:45.134Z,97401.28
2018-06-13T08:18:12.671Z,97400.30
2018-06-13T08:20:40.270Z,97396.20
2018-06-13T08:23:07.785Z,97405.38
2018-06-13T08:25:35.375Z,97414.26
2018-06-13T08:28:03.689Z,97410.26
2018-06-13T08:30:31.238Z,97415.63
2018-06-13T08:32:58.795Z,97414.67
2018-06-13T08:35:26.318Z,97419.55
2018-06-13T08:37:53.885Z,97422.45
2018-06-13T08:40:21.446Z,97420.29
2018-06-13T08:42:48.982Z,97421.22
2018-06-13T08:45:16.531Z,97426.72
2018-06-13T08:47:44.579Z,97425.52
2018-06-13T08:50:12.102Z,97422.70
2018-06-13T08:52:39.630Z,97436.73
2018-06-13T08:55:07.147Z,97430.55
2018-06-13T08:57:34.666Z,97427.23
2018-06-13T09:00:02.231Z,97429.94
2018-06-13T09:02:29.738Z,97434.36
2018-06-13T09:04:57.242Z,97425.67
2018-06-13T09:07:24.782Z,97436.48
2018-06-13T09:09:52.286Z,97431.86
2018-06-13T09:12:19.858Z,97432.52
2018-06-13T09:14:47.390Z,97433.48
2018-06-13T09:17:14.906Z,97437.39
2018-06-13T09:19:42.450Z,97435.23
2018-06-13T09:22:10.001Z,97442.39
2018-06-13T09:24:37.575Z,97444.56
2018-06-13T09:27:05.127Z,97444.35
2018-06-13T09:29:32.666Z,97447.36
2018-06-13T09:32:00.200Z,97451.50
2018-06-13T09:34:27.740Z,97442.55
2018-06-13T09:36:55.322Z,97439.93
2018-06-13T09:39:22.842Z,97443.83
2018-06-13T09:41:55.938Z,97441.09
2018-06-13T09:44:23.474Z,97447.13
2018-06-13T09:46:50.981Z,97450.05
2018-06-13T09:49:18.510Z,97445.89
2018-06-13T09:51:46.071Z,97451.42
2018-06-13T09:54:13.633Z,97456.01
2018-06-13T09:56:41.276Z,97461.19
2018-06-13T09:59:13.295Z,97457.61
2018-06-13T10:02:18.346Z,97465.62
2018-06-13T10:04:46.966Z,97460.00
2018-06-13T10:07:14.554Z,97458.84
2018-06-13T10:09:42.117Z,97463.36
2018-06-13T10:12:09.703Z,97462.16
2018-06-13T10:14:37.246Z,97455.52
2018-06-13T10:17:04.808Z,97450.00
2018-06-13T10:19:32.336Z,97447.37
2018-06-13T10:21:59.941Z,97452.78
2018-06-13T10:24:27.471Z,97463.36
2018-06-13T10:26:54.990Z,97461.93
2018-06-13T10:29:29.116Z,97461.02
2018-06-13T10:31:56.644Z,97459.02
2018-06-13T10:34:24.279Z,97450.19
2018-06-13T10:36:51.788Z,97455.41
2018-06-13T10:39:19.329Z,97456.20
2018-06-13T10:41:46.870Z,97451.06
2018-06-13T10:44:14.410Z,97452.81
2018-06-13T10:46:42.039Z,97456.55
2018-06-13T10:49:09.595Z,97447.82
2018-06-13T10:51:37.132Z,97450.91
2018-06-13T10:54:04.692Z,97457.30
2018-06-13T10:56:32.231Z,97450.97
2018-06-13T10:58:59.775Z,97449.48
2018-06-13T11:01:27.289Z,97439.56
2018-06-13T11:03:54.822Z,97439.94
2018-06-13T11:06:22.361Z,97446.67
2018-06-13T11:08:49.886Z,97453.91
2018-06-13T11:11:17.434Z,97448.73
2018-06-13T11:13:44.986Z,97444.97
2018-06-13T11:16:12.515Z,97449.33
2018-06-13T11:18:40.051Z,97451.38
2018-06-13T11:21:07.579Z,97456.25
2018-06-13T11:23:35.102Z,97460.03
2018-06-13T11:26:02.668Z,97457.45
2018-06-13T11:28:30.193Z,97453.13
2018-06-13T11:30:57.718Z,97453.88
2018-06-13T11:33:25.242Z,97454.20
2018-06-13T11:35:52.794Z,97452.25
2018-06-13T11:38:20.318Z,97457.11
2018-06-13T11:40:47.843Z,97455.59
2018-06-13T11:43:15.393Z,97455.91
2018-06-13T11:45:42.918Z,97444.06
2018-06-13T11:48:10.479Z,97453.58
2018-06-13T11:50:37.998Z,97455.86
2018-06-13T11:53:05.554Z,97450.45
2018-06-13T11:55:33.572Z,97467.89
2018-06-13T11:58:01.138Z,97471.74
2018-06-13T12:00:28.719Z,97469.45
2018-06-13T12:02:56.245Z,97464.98
2018-06-13T12:05:23.787Z,97457.63
2018-06-13T12:07:51.568Z,97465.51
2018-06-13T12:10:19.106Z,97461.26
2018-06-13T12:12:46.658Z,97461.26
2018-06-13T12:15:14.210Z,97460.29
2018-06-13T12:17:41.746Z,97458.77
2018-06-13T12:20:09.331Z,97463.22
2018-06-13T12:22:36.849Z,97457.96
2018-06-13T12:25:04.457Z,97460.64
2018-06-13T12:27:31.987Z,97463.56
2018-06-13T12:29:59.510Z,97460.59
2018-06-13T12:32:27.063Z,97451.21
2018-06-13T12:34:54.590Z,97454.16
2018-06-13T12:37:22.138Z,97457.14
2018-06-13T12:39:49.674Z,97451.83
2018-06-13T12:42:17.246Z,97451.30
2018-06-13T12:44:44.782Z,97455.05
2018-06-13T12:47:12.294Z,97457.44
2018-06-13T12:49:39.831Z,97452.14
2018-06-13T12:52:07.334Z,97450.97
2018-06-13T12:54:34.861Z,97447.15
2018-06-13T12:57:02.939Z,97447.40
2018-06-13T12:59:30.438Z,97449.72
2018-06-13T13:01:57.974Z,97442.83
2018-06-13T13:04:25.473Z,97460.12
2018-06-13T13:06:53.071Z,97447.58
2018-06-13T13:09:20.607Z,97454.85
2018-06-13T13:11:48.114Z,97453.01
2018-06-13T13:14:15.679Z,97454.84
2018-06-13T13:16:43.218Z,97461.89
2018-06-13T13:19:10.754Z,97470.70
2018-06-13T13:21:38.369Z,97470.37
2018-06-13T13:24:05.898Z,97464.74
2018-06-13T13:26:33.470Z,97465.75
2018-06-13T13:29:01.162Z,97471.80
2018-06-13T13:31:28.712Z,97479.15
2018-06-13T13:33:56.258Z,97477.53
2018-06-13T13:36:23.879Z,97483.91
2018-06-13T13:38:51.430Z,97476.24
2018-06-13T13:41:18.974Z,97478.83
2018-06-13T13:43:46.499Z,97491.89
2018-06-13T13:46:14.150Z,97485.96
2018-06-13T13:48:41.718Z,97500.23
2018-06-13T13:51:09.279Z,97511.13
2018-06-13T13:53:36.798Z,97506.60
2018-06-13T13:56:04.409Z,97504.55
2018-06-13T13:58:31.995Z,97503.47
2018-06-13T14:00:59.559Z,97513.73
2018-06-13T14:03:27.113Z,97510.68
2018-06-13T14:05:54.702Z,97510.78
2018-06-13T14:08:22.258Z,97503.42
2018-06-13T14:10:49.868Z,97502.33
2018-06-13T14:13:17.402Z,97501.34
2018-06-13T14:15:45.038Z,97513.30
2018-06-13T14:18:12.571Z,97524.87
2018-06-13T14:20:40.121Z,97517.23
2018-06-13T14:23:07.688Z,97519.80
2018-06-13T14:25:35.202Z,97523.34
2018-06-13T14:28:02.779Z,97527.39
2018-06-13T14:30:30.329Z,97523.87
2018-06-13T14:32:57.976Z,97528.33
2018-06-13T14:35:25.748Z,97527.95
2018-06-13T14:37:53.277Z,97522.84
2018-06-13T14:40:20.838Z,97525.97
2018-06-13T14:42:48.370Z,97523.28
2018-06-13T14:45:15.894Z,97524.16
2018-06-13T14:47:43.478Z,97522.78
2018-06-13T14:50:11.019Z,97527.38
2018-06-13T14:52:38.609Z,97524.30
2018-06-13T14:55:06.155Z,97528.25
2018-06-13T14:57:33.670Z,97522.59
2018-06-13T15:00:01.222Z,97529.03
2018-06-13T15:02:28.750Z,97534.90
2018-06-13T15:04:56.315Z,97530.64
2018-06-13T15:07:23.858Z,97525.76
2018-06-13T15:09:51.374Z,97534.18
2018-06-13T15:12:18.902Z,97533.59
2018-06-13T15:14:46.414Z,97541.81
2018-06-13T15:17:13.950Z,97540.95
2018-06-13T15:19:41.473Z,97532.50
2018-06-13T15:22:09.056Z,97542.67
2018-06-13T15:24:36.605Z,97546.79
2018-06-13T15:27:04.196Z,97546.31
2018-06-13T15:29:31.715Z,97545.80
2018-06-13T15:31:59.330Z,97550.23
2018-06-13T15:34:26.962Z,97546.92
2018-06-13T15:36:54.550Z,97554.38
2018-06-13T15:39:22.112Z,97553.59
2018-06-13T15:41:49.640Z,97554.30
2018-06-13T15:44:17.208Z,97550.95
2018-06-13T15:46:44.740Z,97552.66
2018-06-13T15:49:12.258Z,97552.20
2018-06-13T15:51:39.848Z,97555.83
2018-06-13T15:54:08.395Z,97554.42
2018-06-13T15:56:36.034Z,97560.19
2018-06-13T15:59:03.715Z,97560.61
2018-06-13T16:01:31.678Z,97561.58
2018-06-13T16:03:59.254Z,97568.06
2018-06-13T16:06:26.842Z,97568.88
2018-06-13T16:08:54.519Z,97573.19
2018-06-13T16:11:22.100Z,97579.25
2018-06-13T16:13:49.666Z,97579.13
2018-06-13T16:16:17.235Z,97580.83
2018-06-13T16:18:44.790Z,97586.83
2018-06-13T16:21:12.370Z,97594.88
2018-06-13T16:23:39.915Z,97587.47
2018-06-13T16:26:07.539Z,97590.91
2018-06-13T16:28:35.082Z,97589.99
2018-06-13T16:31:02.635Z,97585.45
2018-06-13T16:33:30.214Z,97593.02
2018-06-13T16:35:57.810Z,97601.41
2018-06-13T16:38:25.314Z,97605.98
2018-06-13T16:40:52.893Z,97611.58
2018-06-13T16:43:20.421Z,97616.19
2018-06-13T16:45:47.978Z,97611.48
2018-06-13T16:48:15.538Z,97609.33
2018-06-13T16:50:54.311Z,97607.70
2018-06-13T16:53:33.206Z,97619.78
2018-06-13T16:56:01.162Z,97619.30
2018-06-13T16:58:28.675Z,97620.36
2018-06-13T17:00:56.206Z,97621.66
2018-06-13T17:03:23.770Z,97638.30
2018-06-13T17:05:51.310Z,97637.56
2018-06-13T17:08:18.919Z,97639.12
2018-06-13T17:10:46.474Z,97640.39
2018-06-13T17:13:14.006Z,97650.93
2018-06-13T17:15:41.584Z,97653.19
2018-06-13T17:18:09.102Z,97656.11
2018-06-13T17:20:36.654Z,97651.18
2018-06-13T17:23:04.262Z,97656.18
2018-06-13T17:25:31.783Z,97645.91
2018-06-13T17:27:59.345Z,97655.70
2018-06-13T17:30:26.859Z,97650.23
2018-06-13T17:32:54.399Z,97653.93
2018-06-13T17:35:21.950Z,97648.73
2018-06-13T17:37:49.462Z,97660.69
2018-06-13T17:40:18.151Z,97664.78
2018-06-13T17:42:45.690Z,97657.05
2018-06-13T17:45:13.240Z,97658.33
2018-06-13T17:47:40.771Z,97656.67
2018-06-13T17:50:08.367Z,97659.84
2018-06-13T17:52:35.906Z,97652.22
2018-06-13T17:55:03.474Z,97656.69
2018-06-13T17:57:31.034Z,97653.50
2018-06-13T17:59:58.578Z,97653.37
2018-06-13T18:02:26.111Z,97660.24
2018-06-13T18:04:53.646Z,97657.20
2018-06-13T18:07:21.146Z,97659.98
2018-06-13T18:09:48.707Z,97659.48
2018-06-13T18:12:16.226Z,97661.74
2018-06-13T18:14:43.754Z,97673.30
2018-06-13T18:17:11.304Z,97672.53
2018-06-13T18:19:38.844Z,97674.30
2018-06-13T18:22:06.427Z,97679.52
2018-06-13T18:24:34.018Z,97675.33
2018-06-13T18:27:01.521Z,97683.56
2018-06-13T18:29:29.043Z,97686.75
2018-06-13T18:31:56.565Z,97694.09
2018-06-13T18:34:24.126Z,97692.96
2018-06-13T18:36:51.670Z,97695.39
2018-06-13T18:39:19.182Z,97691.83
2018-06-13T18:41:46.718Z,97697.41
2018-06-13T18:44:14.238Z,97700.83
2018-06-13T18:46:41.774Z,97700.69
2018-06-13T18:49:09.302Z,97701.95
2018-06-13T18:51:36.827Z,97702.45
2018-06-13T18:54:04.483Z,97702.98
2018-06-13T18:56:32.004Z,97707.41
2018-06-13T18:58:59.563Z,97711.86
2018-06-13T19:01:27.095Z,97710.09
2018-06-13T19:03:54.678Z,97709.84
2018-06-13T19:06:22.199Z,97710.83
2018-06-13T19:08:49.718Z,97708.94
2018-06-13T19:11:17.373Z,97706.66
2018-06-13T19:13:44.806Z,97708.95
2018-06-13T19:16:12.333Z,97709.08
2018-06-13T19:18:39.870Z,97713.13
2018-06-13T19:21:07.383Z,97727.35
2018-06-13T19:23:34.934Z,97731.14
2018-06-13T19:26:02.465Z,97726.83
2018-06-13T19:28:29.990Z,97734.56
2018-06-13T19:30:57.527Z,97734.43
2018-06-13T19:33:25.138Z,97735.72
2018-06-13T19:35:52.682Z,97743.44
2018-06-13T19:38:20.202Z,97744.32
2018-06-13T19:40:47.764Z,97742.04
2018-06-13T19:43:20.902Z,97744.46
2018-06-13T19:45:48.410Z,97735.69
2018-06-13T19:48:21.537Z,97741.03
2018-06-13T19:50:49.066Z,97747.11
2018-06-13T19:53:22.429Z,97745.48
2018-06-13T19:56:09.730Z,97745.09
2018-06-13T19:58:38.108Z,97748.15
2018-06-13T20:01:05.950Z,97749.02
2018-06-13T20:03:39.150Z,97756.12
2018-06-13T20:06:06.766Z,97750.66
2018-06-13T20:08:34.422Z,97752.95
2018-06-13T20:11:02.176Z,97756.11
2018-06-13T20:13:35.306Z,97760.31
2018-06-13T20:16:08.479Z,97757.66
2018-06-13T20:18:41.645Z,97757.16
2018-06-13T20:21:10.168Z,97755.63
2018-06-13T20:23:37.957Z,97760.58
2018-06-13T20:26:10.917Z,97756.75
2018-06-13T20:28:43.878Z,97758.77
2018-06-13T20:31:18.152Z,97756.45
2018-06-13T20:33:45.702Z,97749.89
2018-06-13T20:36:13.248Z,97750.66
2018-06-13T20:38:40.750Z,97753.56
2018-06-13T20:41:08.346Z,97755.20
2018-06-13T20:43:35.886Z,97756.60
2018-06-13T20:46:03.466Z,97757.50
2018-06-13T20:48:31.007Z,97753.45
2018-06-13T20:50:58.583Z,97761.97
2018-06-13T20:53:26.106Z,97762.71
2018-06-13T20:55:53.618Z,97766.14
2018-06-13T20:58:21.158Z,97767.67
2018-06-13T21:00:48.725Z,97766.52
2018-06-13T21:03:16.243Z,97759.41
2018-06-13T21:05:43.779Z,97767.54
2018-06-13T21:08:11.342Z,97769.06
2018-06-13T21:10:38.851Z,97765.12
2018-06-13T21:13:06.390Z,97770.07
2018-06-13T21:15:33.910Z,97775.16
2018-06-13T21:18:01.463Z,97773.25
2018-06-13T21:20:29.022Z,97769.78
2018-06-13T21:22:56.556Z,97774.11
2018-06-13T21:25:24.126Z,97770.20
2018-06-13T21:27:51.646Z,97778.20
2018-06-13T21:30:19.157Z,97782.40
2018-06-13T21:32:46.695Z,97781.23
2018-06-13T21:35:14.223Z,97785.30
2018-06-13T21:37:41.774Z,97782.27
2018-06-13T21:40:09.312Z,97783.65
2018-06-13T21:42:36.845Z,97782.75
2018-06-13T21:45:04.402Z,97788.84
2018-06-13T21:47:31.914Z,97788.47
2018-06-13T21:49:59.478Z,97796.57
2018-06-13T21:52:27.014Z,97789.86
2018-06-13T21:54:54.601Z,97788.81
2018-06-13T21:57:22.158Z,97792.50
2018-06-13T21:59:49.666Z,97793.14
2018-06-13T22:02:17.239Z,97797.59
2018-06-13T22:04:44.759Z,97796.08
2018-06-13T22:07:12.319Z,97797.08
2018-06-13T22:09:39.863Z,97793.78
2018-06-13T22:12:07.401Z,97796.84
2018-06-13T22:14:34.960Z,97794.27
2018-06-13T22:17:02.522Z,97789.09
2018-06-13T22:19:30.035Z,97800.41
2018-06-13T22:21:57.587Z,97799.64
2018-06-13T22:24:25.102Z,97799.13
2018-06-13T22:26:52.666Z,97798.23
2018-06-13T22:29:20.195Z,97798.37
2018-06-13T22:31:47.710Z,97804.59
2018-06-13T22:34:15.238Z,97811.69
2018-06-13T22:36:42.755Z,97808.36
2018-06-13T22:39:11.911Z,97808.13
2018-06-13T22:41:39.449Z,97804.45
2018-06-13T22:44:06.986Z,97804.59
2018-06-13T22:46:34.530Z,97802.28
2018-06-13T22:49:02.070Z,97799.86
2018-06-13T22:51:29.658Z,97796.67
2018-06-13T22:53:57.250Z,97796.81
2018-06-13T22:56:24.869Z,97796.96
2018-06-13T22:58:52.409Z,97789.84
2018-06-13T23:01:19.950Z,97797.59
2018-06-13T23:03:47.503Z,97792.64
2018-06-13T23:06:15.027Z,97784.77
2018-06-13T23:08:42.538Z,97800.63
2018-06-13T23:11:10.079Z,97806.60
2018-06-13T23:13:37.619Z,97808.34
2018-06-13T23:16:05.207Z,97812.55
2018-06-13T23:18:32.783Z,97815.09
2018-06-13T23:21:00.310Z,97816.07
2018-06-13T23:23:27.829Z,97813.69
2018-06-13T23:25:56.104Z,97815.32
2018-06-13T23:28:23.675Z,97815.86
2018-06-13T23:30:51.186Z,97817.90
2018-06-13T23:33:18.894Z,97819.50
2018-06-13T23:35:46.410Z,97819.91
2018-06-13T23:38:14.358Z,97824.59
2018-06-13T23:40:41.910Z,97819.91
2018-06-13T23:43:09.426Z,97823.08
2018-06-13T23:45:36.962Z,97817.77
2018-06-13T23:48:04.543Z,97824.35
2018-06-13T23:50:32.062Z,97823.20
2018-06-13T23:52:59.843Z,97823.70
2018-06-13T23:55:27.410Z,97830.67
2018-06-13T23:57:54.902Z,97829.14
